Time;durP1;ratioP1;P1;durP2;ratioP2;P2;SDS_P1;SDS_P2;PMS_P1;PMS_P2;Temp;Humidity;BMP_temperature;BMP_pressure;BME280_temperature;BME280_humidity;BME280_pressure;Samples;Min_cycle;Max_cycle;Signal;HPM_P1;HPM_P2
2022/03/19 00:01:26;;;;;;;52.17;39.33;;;;;;;;;;4964782;28;25043;-51
2022/03/19 00:03:51;;;;;;;48.83;38.15;;;;;;;;;;4968856;28;24437;-51
2022/03/19 00:06:16;;;;;;;47.50;38.43;;;;;;;;;;4963337;28;24429;-51
2022/03/19 00:08:42;;;;;;;50.40;37.60;;;;;;;;;;4965352;28;24452;-51
2022/03/19 00:11:07;;;;;;;50.63;38.13;;;;;;;;;;4967182;28;24429;-51
2022/03/19 00:13:33;;;;;;;50.70;39.13;;;;;;;;;;4959391;28;24497;-51
2022/03/19 00:15:58;;;;;;;47.30;36.90;;;;;;;;;;4961003;28;24964;-51
2022/03/19 00:18:24;;;;;;;47.70;37.97;;;;;;;;;;4959331;28;24779;-51
2022/03/19 00:20:50;;;;;;;51.85;39.25;;;;;;;;;;4964823;28;24998;-51
2022/03/19 00:23:15;;;;;;;51.67;41.33;;;;;;;;;;4963864;28;24467;-51
2022/03/19 00:25:40;;;;;;;52.83;40.73;;;;;;;;;;4955486;28;24560;-51
2022/03/19 00:28:07;;;;;;;48.63;38.10;;;;;;;;;;4956993;28;24536;-51
2022/03/19 00:30:32;;;;;;;49.83;39.22;;;;;;;;;;4964699;28;24562;-51
2022/03/19 00:32:58;;;;;;;51.07;39.00;;;;;;;;;;4963444;28;24594;-52
2022/03/19 00:35:23;;;;;;;53.57;39.07;;;;;;;;;;4957622;28;25010;-51
2022/03/19 00:37:49;;;;;;;52.33;39.70;;;;;;;;;;4958954;28;24457;-52
2022/03/19 00:40:16;;;;;;;52.10;39.92;;;;;;;;;;4964070;28;24414;-51
2022/03/19 00:42:41;;;;;;;49.53;36.85;;;;;;;;;;4967077;28;24788;-51
2022/03/19 00:45:07;;;;;;;48.88;38.42;;;;;;;;;;4961298;28;24971;-51
2022/03/19 00:47:32;;;;;;;50.60;38.50;;;;;;;;;;4966815;28;24449;-52
2022/03/19 00:49:58;;;;;;;49.10;38.00;;;;;;;;;;4966037;28;24430;-52
2022/03/19 00:52:23;;;;;;;50.70;38.75;;;;;;;;;;4955547;28;25053;-52
2022/03/19 00:54:48;;;;;;;50.90;38.37;;;;;;;;;;4961417;28;24461;-51
2022/03/19 00:57:13;;;;;;;49.53;37.57;;;;;;;;;;4955234;28;24501;-51
2022/03/19 00:59:39;;;;;;;51.70;39.70;;;;;;;;;;4957238;28;24421;-52
2022/03/19 01:02:04;;;;;;;53.08;39.20;;;;;;;;;;4961871;28;24501;-52
2022/03/19 01:04:29;;;;;;;51.25;38.78;;;;;;;;;;4960445;28;24462;-52
2022/03/19 01:06:55;;;;;;;49.00;39.08;;;;;;;;;;4966983;28;24447;-51
2022/03/19 01:09:20;;;;;;;49.83;38.57;;;;;;;;;;4957526;28;24955;-51
2022/03/19 01:11:45;;;;;;;48.15;37.80;;;;;;;;;;4965356;28;24833;-51
2022/03/19 01:14:11;;;;;;;50.33;39.77;;;;;;;;;;4961355;28;24408;-51
2022/03/19 01:16:36;;;;;;;49.65;37.60;;;;;;;;;;4960850;28;24458;-52
2022/03/19 01:19:01;;;;;;;46.80;37.60;;;;;;;;;;4968904;28;24430;-52
2022/03/19 01:21:27;;;;;;;47.92;36.05;;;;;;;;;;4962936;28;24429;-52
2022/03/19 01:23:52;;;;;;;48.23;38.80;;;;;;;;;;4956513;28;24854;-50
2022/03/19 01:26:17;;;;;;;50.63;37.77;;;;;;;;;;4954501;28;24430;-51
2022/03/19 01:28:43;;;;;;;50.17;38.90;;;;;;;;;;4959301;28;24414;-50
2022/03/19 01:31:11;;;;;;;54.87;41.17;;;;;;;;;;4959559;28;24880;-50
2022/03/19 01:33:36;;;;;;;53.67;39.10;;;;;;;;;;4960240;28;25271;-50
2022/03/19 01:36:01;;;;;;;49.30;38.72;;;;;;;;;;4962802;28;24471;-50
2022/03/19 01:38:26;;;;;;;54.87;38.00;;;;;;;;;;4953175;28;24418;-50
2022/03/19 01:40:51;;;;;;;56.13;39.40;;;;;;;;;;4962995;28;24409;-51
2022/03/19 01:43:16;;;;;;;49.80;37.85;;;;;;;;;;4965031;28;24421;-51
2022/03/19 01:45:42;;;;;;;48.38;36.95;;;;;;;;;;4953162;28;24418;-50
2022/03/19 01:48:07;;;;;;;44.87;35.23;;;;;;;;;;4962239;28;25053;-51
2022/03/19 01:50:32;;;;;;;49.83;37.60;;;;;;;;;;4956377;28;24857;-52
2022/03/19 01:52:57;;;;;;;52.80;38.17;;;;;;;;;;4954984;28;25187;-51
2022/03/19 01:55:23;;;;;;;51.67;37.73;;;;;;;;;;4967341;28;24401;-52
2022/03/19 01:57:49;;;;;;;50.50;37.38;;;;;;;;;;4960246;28;24429;-51
2022/03/19 02:00:17;;;;;;;50.93;38.70;;;;;;;;;;4957538;28;24413;-51
2022/03/19 02:02:44;;;;;;;50.80;37.45;;;;;;;;;;4966971;28;24978;-52
2022/03/19 02:05:14;;;;;;;51.23;38.30;;;;;;;;;;4960226;28;24977;-51
2022/03/19 02:07:39;;;;;;;51.95;38.88;;;;;;;;;;4953888;28;24449;-51
2022/03/19 02:10:04;;;;;;;46.20;36.53;;;;;;;;;;4954681;28;25054;-51
2022/03/19 02:12:29;;;;;;;52.17;38.83;;;;;;;;;;4961061;28;24446;-50
2022/03/19 02:14:57;;;;;;;49.70;36.75;;;;;;;;;;4955915;28;24449;-50
2022/03/19 02:17:24;;;;;;;50.50;37.00;;;;;;;;;;4964233;28;24548;-50
2022/03/19 02:19:50;;;;;;;49.47;36.55;;;;;;;;;;4963550;28;24838;-50
2022/03/19 02:22:16;;;;;;;45.00;34.30;;;;;;;;;;4962535;28;24420;-52
2022/03/19 02:27:25;;;;;;;45.63;34.80;;;;;;;;;;4966753;28;24410;-51
2022/03/19 02:29:51;;;;;;;41.33;33.22;;;;;;;;;;4956690;28;24437;-51
2022/03/19 02:32:17;;;;;;;45.28;33.45;;;;;;;;;;4961986;28;24449;-51
2022/03/19 02:34:42;;;;;;;44.40;33.67;;;;;;;;;;4965575;28;24448;-50
2022/03/19 02:37:07;;;;;;;40.00;30.13;;;;;;;;;;4958419;28;24418;-51
2022/03/19 02:39:33;;;;;;;40.55;30.90;;;;;;;;;;4960240;28;24476;-51
2022/03/19 02:41:59;;;;;;;43.13;31.23;;;;;;;;;;4961727;28;24418;-51
2022/03/19 02:44:25;;;;;;;36.00;28.93;;;;;;;;;;4962363;28;24501;-51
2022/03/19 02:46:55;;;;;;;38.53;28.37;;;;;;;;;;4960639;28;24977;-51
2022/03/19 02:49:21;;;;;;;40.63;29.57;;;;;;;;;;4956928;28;24504;-51
2022/03/19 02:51:47;;;;;;;40.88;30.23;;;;;;;;;;4960909;28;24413;-50
2022/03/19 02:54:13;;;;;;;41.42;29.77;;;;;;;;;;4959985;28;24410;-51
2022/03/19 02:56:40;;;;;;;33.38;26.23;;;;;;;;;;4959362;28;24416;-51
2022/03/19 02:59:09;;;;;;;36.57;28.80;;;;;;;;;;4961049;28;24418;-51
2022/03/19 03:01:34;;;;;;;34.00;26.67;;;;;;;;;;4970618;28;24457;-51
2022/03/19 03:03:59;;;;;;;36.07;27.10;;;;;;;;;;4967241;28;24421;-52
2022/03/19 03:06:25;;;;;;;33.60;25.90;;;;;;;;;;4966388;28;24423;-51
2022/03/19 03:08:50;;;;;;;31.90;25.45;;;;;;;;;;4953020;28;25040;-51
2022/03/19 03:11:15;;;;;;;29.20;24.38;;;;;;;;;;4952812;28;24442;-51
2022/03/19 03:13:40;;;;;;;31.50;23.15;;;;;;;;;;4954514;28;24429;-52
2022/03/19 03:16:05;;;;;;;29.33;22.73;;;;;;;;;;4971436;28;24476;-51
2022/03/19 03:18:30;;;;;;;29.13;21.90;;;;;;;;;;4964560;28;24437;-52
2022/03/19 03:20:57;;;;;;;28.77;21.70;;;;;;;;;;4970511;28;24542;-51
2022/03/19 03:23:22;;;;;;;27.40;22.15;;;;;;;;;;4966457;28;24461;-52
2022/03/19 03:25:47;;;;;;;27.33;20.93;;;;;;;;;;4965799;28;24784;-51
2022/03/19 03:28:13;;;;;;;25.80;21.05;;;;;;;;;;4968109;28;24967;-52
2022/03/19 03:30:38;;;;;;;25.55;20.73;;;;;;;;;;4952514;28;24430;-51
2022/03/19 03:33:03;;;;;;;25.10;18.60;;;;;;;;;;4967066;28;24430;-51
2022/03/19 03:35:28;;;;;;;25.60;20.08;;;;;;;;;;4959949;28;24419;-51
2022/03/19 03:37:53;;;;;;;24.23;18.60;;;;;;;;;;4954287;28;24445;-51
2022/03/19 03:40:19;;;;;;;24.07;19.50;;;;;;;;;;4952879;28;24542;-52
2022/03/19 03:42:44;;;;;;;24.67;19.00;;;;;;;;;;4955584;28;24765;-51
2022/03/19 03:45:10;;;;;;;22.33;18.52;;;;;;;;;;4963448;28;24998;-51
2022/03/19 03:47:35;;;;;;;26.52;18.73;;;;;;;;;;4962883;28;24464;-51
2022/03/19 03:50:00;;;;;;;22.30;17.75;;;;;;;;;;4968914;28;24461;-51
2022/03/19 03:52:26;;;;;;;24.90;18.13;;;;;;;;;;4968235;28;25862;-51
2022/03/19 03:54:52;;;;;;;25.35;18.67;;;;;;;;;;4959292;28;24410;-51
2022/03/19 03:57:17;;;;;;;23.67;18.20;;;;;;;;;;4959246;28;24487;-51
2022/03/19 03:59:42;;;;;;;25.93;18.60;;;;;;;;;;4959105;28;24427;-50
2022/03/19 04:02:08;;;;;;;22.97;17.80;;;;;;;;;;4970268;28;24574;-51
2022/03/19 04:04:33;;;;;;;22.52;16.92;;;;;;;;;;4957173;28;24425;-51
2022/03/19 04:06:58;;;;;;;24.70;18.30;;;;;;;;;;4964657;28;24414;-51
2022/03/19 04:09:23;;;;;;;22.77;17.42;;;;;;;;;;4957790;28;24426;-52
2022/03/19 04:11:48;;;;;;;22.93;17.20;;;;;;;;;;4957093;28;24413;-51
2022/03/19 04:14:13;;;;;;;21.97;15.93;;;;;;;;;;4959862;28;24460;-51
2022/03/19 04:16:39;;;;;;;25.25;17.88;;;;;;;;;;4964928;28;24411;-50
2022/03/19 04:19:05;;;;;;;25.40;18.20;;;;;;;;;;4965306;28;24537;-51
2022/03/19 04:21:30;;;;;;;24.85;18.30;;;;;;;;;;4966803;28;24448;-51
2022/03/19 04:23:55;;;;;;;22.73;17.93;;;;;;;;;;4965882;28;25038;-51
2022/03/19 04:26:20;;;;;;;24.03;18.27;;;;;;;;;;4966301;28;24505;-51
2022/03/19 04:28:45;;;;;;;21.80;17.27;;;;;;;;;;4963205;28;24813;-50
2022/03/19 04:31:10;;;;;;;20.95;16.20;;;;;;;;;;4958612;28;24472;-51
2022/03/19 04:33:35;;;;;;;23.60;16.00;;;;;;;;;;4960821;28;24467;-52
2022/03/19 04:38:44;;;;;;;20.38;14.90;;;;;;;;;;4957154;28;24789;-50
2022/03/19 04:41:11;;;;;;;20.73;14.90;;;;;;;;;;4969903;28;24422;-51
2022/03/19 04:43:36;;;;;;;18.38;13.90;;;;;;;;;;4967059;28;24943;-50
2022/03/19 04:46:02;;;;;;;19.08;14.40;;;;;;;;;;4969271;28;24480;-51
2022/03/19 04:48:27;;;;;;;18.60;13.50;;;;;;;;;;4964965;28;24456;-51
2022/03/19 04:50:53;;;;;;;19.95;15.27;;;;;;;;;;4968387;28;24448;-51
2022/03/19 04:53:18;;;;;;;21.40;14.80;;;;;;;;;;4969857;28;24468;-51
2022/03/19 04:55:43;;;;;;;19.30;14.33;;;;;;;;;;4954562;28;25091;-51
2022/03/19 04:58:09;;;;;;;18.57;14.20;;;;;;;;;;4951260;28;24519;-51
2022/03/19 05:00:34;;;;;;;20.10;14.20;;;;;;;;;;4969197;28;24410;-51
2022/03/19 05:02:59;;;;;;;17.93;13.13;;;;;;;;;;4967784;28;25018;-51
2022/03/19 05:05:24;;;;;;;19.77;14.70;;;;;;;;;;4965208;28;24769;-51
2022/03/19 05:07:53;;;;;;;17.73;13.13;;;;;;;;;;4966181;28;24446;-51
2022/03/19 05:13:02;;;;;;;19.42;14.20;;;;;;;;;;4968054;28;24472;-51
2022/03/19 05:15:28;;;;;;;18.80;13.75;;;;;;;;;;4961213;28;24933;-51
2022/03/19 05:17:53;;;;;;;19.67;12.77;;;;;;;;;;4954840;28;24960;-51
2022/03/19 05:20:18;;;;;;;17.75;13.40;;;;;;;;;;4953011;28;24446;-51
2022/03/19 05:22:43;;;;;;;18.93;12.50;;;;;;;;;;4963760;28;24437;-51
2022/03/19 05:25:08;;;;;;;17.73;13.40;;;;;;;;;;4962782;28;24422;-51
2022/03/19 05:27:34;;;;;;;19.27;13.63;;;;;;;;;;4950724;28;24422;-50
2022/03/19 05:29:59;;;;;;;18.27;13.00;;;;;;;;;;4956010;28;24438;-50
2022/03/19 05:32:25;;;;;;;18.80;13.20;;;;;;;;;;4961885;28;24410;-50
2022/03/19 05:34:50;;;;;;;20.95;14.50;;;;;;;;;;4954359;28;24417;-51
2022/03/19 05:37:16;;;;;;;17.30;12.80;;;;;;;;;;4966276;28;24556;-50
2022/03/19 05:39:41;;;;;;;15.75;12.00;;;;;;;;;;4965315;28;24425;-51
2022/03/19 05:42:06;;;;;;;16.90;12.23;;;;;;;;;;4960595;28;24457;-50
2022/03/19 05:44:32;;;;;;;19.25;11.82;;;;;;;;;;4961821;28;24948;-50
2022/03/19 05:46:58;;;;;;;20.33;13.10;;;;;;;;;;4962671;28;24589;-50
2022/03/19 05:49:23;;;;;;;18.65;13.35;;;;;;;;;;4962140;28;25171;-51
2022/03/19 05:51:48;;;;;;;18.83;12.83;;;;;;;;;;4957465;28;24536;-51
2022/03/19 05:54:14;;;;;;;17.25;12.20;;;;;;;;;;4965864;28;24441;-51
2022/03/19 05:56:39;;;;;;;19.03;12.07;;;;;;;;;;4961519;28;24468;-51
2022/03/19 05:59:04;;;;;;;16.10;12.20;;;;;;;;;;4964780;28;24448;-51
2022/03/19 06:01:30;;;;;;;16.03;12.03;;;;;;;;;;4965683;28;24964;-51
2022/03/19 06:03:58;;;;;;;14.17;10.40;;;;;;;;;;4964798;28;24437;-52
2022/03/19 06:06:24;;;;;;;18.17;11.63;;;;;;;;;;4965189;28;24986;-51
2022/03/19 06:08:49;;;;;;;15.60;11.87;;;;;;;;;;4965931;28;24445;-52
2022/03/19 06:11:15;;;;;;;15.90;11.40;;;;;;;;;;4961414;28;25015;-51
2022/03/19 06:13:40;;;;;;;14.75;11.30;;;;;;;;;;4960559;28;24594;-51
2022/03/19 06:16:06;;;;;;;15.43;11.40;;;;;;;;;;4964611;28;24421;-52
2022/03/19 06:18:31;;;;;;;15.50;11.18;;;;;;;;;;4962562;28;24507;-52
2022/03/19 06:20:56;;;;;;;16.02;11.30;;;;;;;;;;4958495;28;24426;-52
2022/03/19 06:23:22;;;;;;;15.70;10.60;;;;;;;;;;4955267;28;24441;-52
2022/03/19 06:25:47;;;;;;;15.05;10.90;;;;;;;;;;4961028;28;24425;-51
2022/03/19 06:28:12;;;;;;;15.00;10.03;;;;;;;;;;4962194;28;24448;-51
2022/03/19 06:30:37;;;;;;;15.27;10.52;;;;;;;;;;4959859;28;24509;-51
2022/03/19 06:33:03;;;;;;;14.70;11.07;;;;;;;;;;4956588;28;25042;-52
2022/03/19 06:38:13;;;;;;;15.82;11.70;;;;;;;;;;4959157;28;24409;-52
2022/03/19 06:40:38;;;;;;;15.97;11.30;;;;;;;;;;4958638;28;24414;-50
2022/03/19 06:43:03;;;;;;;15.63;11.20;;;;;;;;;;4966799;28;24955;-50
2022/03/19 06:45:28;;;;;;;15.75;11.43;;;;;;;;;;4956443;28;24453;-51
2022/03/19 06:47:53;;;;;;;18.48;13.00;;;;;;;;;;4968011;28;24449;-51
2022/03/19 06:50:19;;;;;;;18.42;11.35;;;;;;;;;;4959477;28;24911;-51
2022/03/19 06:52:44;;;;;;;14.30;10.20;;;;;;;;;;4966300;28;24446;-51
2022/03/19 06:55:09;;;;;;;12.63;10.23;;;;;;;;;;4958569;28;24458;-50
2022/03/19 06:57:34;;;;;;;16.75;10.85;;;;;;;;;;4971733;28;24417;-51
2022/03/19 07:00:00;;;;;;;16.20;11.53;;;;;;;;;;4968104;28;24476;-51
2022/03/19 07:02:25;;;;;;;19.50;13.57;;;;;;;;;;4967778;28;24418;-52
2022/03/19 07:04:50;;;;;;;17.33;12.67;;;;;;;;;;4961808;28;24433;-52
2022/03/19 07:07:17;;;;;;;16.02;12.43;;;;;;;;;;4966768;28;24489;-52
2022/03/19 07:09:42;;;;;;;19.70;13.80;;;;;;;;;;4966652;28;24428;-52
2022/03/19 07:12:11;;;;;;;21.93;16.53;;;;;;;;;;4969804;28;24418;-50
2022/03/19 07:14:36;;;;;;;22.65;15.30;;;;;;;;;;4971829;28;24417;-50
2022/03/19 07:17:01;;;;;;;21.60;13.80;;;;;;;;;;4968666;28;24491;-51
2022/03/19 07:19:26;;;;;;;21.67;15.17;;;;;;;;;;4970109;28;24980;-51
2022/03/19 07:21:52;;;;;;;20.63;15.00;;;;;;;;;;4964734;28;24417;-51
2022/03/19 07:24:17;;;;;;;20.73;15.50;;;;;;;;;;4958906;28;24419;-51
2022/03/19 07:26:42;;;;;;;17.20;14.00;;;;;;;;;;4951936;28;24861;-52
2022/03/19 07:29:07;;;;;;;20.00;14.40;;;;;;;;;;4964981;28;24414;-51
2022/03/19 07:31:32;;;;;;;22.80;15.43;;;;;;;;;;4961193;28;24422;-52
2022/03/19 07:33:58;;;;;;;19.97;13.67;;;;;;;;;;4954770;28;24494;-51
2022/03/19 07:36:23;;;;;;;21.97;14.80;;;;;;;;;;4959167;28;24428;-52
2022/03/19 07:38:48;;;;;;;21.30;14.70;;;;;;;;;;4959465;28;24500;-51
2022/03/19 07:43:57;;;;;;;19.08;15.95;;;;;;;;;;4962789;28;24468;-51
2022/03/19 07:46:24;;;;;;;19.13;15.18;;;;;;;;;;4966450;28;24449;-50
2022/03/19 07:48:50;;;;;;;21.80;15.10;;;;;;;;;;4966029;28;24424;-51
2022/03/19 07:51:15;;;;;;;22.73;15.75;;;;;;;;;;4967942;28;24441;-50
2022/03/19 07:53:40;;;;;;;21.15;15.18;;;;;;;;;;4960725;28;24434;-51
2022/03/19 07:56:06;;;;;;;22.77;16.17;;;;;;;;;;4963027;28;25061;-50
2022/03/19 07:58:31;;;;;;;20.37;15.77;;;;;;;;;;4957832;28;24489;-50
2022/03/19 08:00:56;;;;;;;21.17;15.68;;;;;;;;;;4966574;28;24497;-51
2022/03/19 08:03:21;;;;;;;22.63;14.90;;;;;;;;;;4970426;28;24402;-51
2022/03/19 08:05:46;;;;;;;21.65;16.33;;;;;;;;;;4970179;28;24397;-50
2022/03/19 08:08:12;;;;;;;22.27;16.43;;;;;;;;;;4969294;28;24841;-51
2022/03/19 08:10:38;;;;;;;27.38;18.00;;;;;;;;;;4954715;28;24434;-51
2022/03/19 08:13:04;;;;;;;21.65;16.45;;;;;;;;;;4954676;28;24432;-51
2022/03/19 08:15:30;;;;;;;22.58;16.85;;;;;;;;;;4959455;28;25018;-51
2022/03/19 08:17:55;;;;;;;23.37;17.87;;;;;;;;;;4963239;28;24788;-52
2022/03/19 08:20:20;;;;;;;26.63;18.10;;;;;;;;;;4965462;28;24830;-51
2022/03/19 08:22:45;;;;;;;26.55;19.33;;;;;;;;;;4954244;28;24726;-51
2022/03/19 08:25:11;;;;;;;25.90;18.20;;;;;;;;;;4962515;28;24528;-51
2022/03/19 08:27:36;;;;;;;22.80;17.40;;;;;;;;;;4968182;28;24417;-51
2022/03/19 08:30:03;;;;;;;27.42;19.10;;;;;;;;;;4960933;28;24482;-52
2022/03/19 08:32:29;;;;;;;26.70;19.30;;;;;;;;;;4951104;28;24437;-51
2022/03/19 08:34:54;;;;;;;24.00;18.30;;;;;;;;;;4950702;28;24505;-51
2022/03/19 08:37:19;;;;;;;23.48;17.60;;;;;;;;;;4948818;28;24425;-51
2022/03/19 08:42:28;;;;;;;24.17;17.37;;;;;;;;;;4950717;29;24370;-52
2022/03/19 08:44:56;;;;;;;25.10;19.02;;;;;;;;;;4950721;28;24390;-51
2022/03/19 08:47:21;;;;;;;23.05;17.35;;;;;;;;;;4950489;28;24849;-51
2022/03/19 08:49:46;;;;;;;25.87;17.77;;;;;;;;;;4950125;28;25015;-50
2022/03/19 08:52:12;;;;;;;19.50;17.00;;;;;;;;;;4950050;28;25034;-51
2022/03/19 08:54:37;;;;;;;24.83;17.87;;;;;;;;;;4950704;28;24489;-51
2022/03/19 08:57:02;;;;;;;19.48;16.13;;;;;;;;;;4949791;28;24390;-50
2022/03/19 08:59:27;;;;;;;21.40;17.47;;;;;;;;;;4949707;28;24445;-52
2022/03/19 09:01:52;;;;;;;19.45;16.90;;;;;;;;;;4952464;28;24468;-52
2022/03/19 09:04:18;;;;;;;22.17;17.10;;;;;;;;;;4969548;28;24449;-52
2022/03/19 09:06:43;;;;;;;23.23;16.83;;;;;;;;;;4969423;28;24393;-51
2022/03/19 09:09:09;;;;;;;20.17;15.85;;;;;;;;;;4969107;28;24441;-51
2022/03/19 09:11:35;;;;;;;24.70;18.60;;;;;;;;;;4968674;28;24503;-51
2022/03/19 09:14:00;;;;;;;19.40;16.10;;;;;;;;;;4969324;28;24401;-52
2022/03/19 09:16:26;;;;;;;21.00;16.90;;;;;;;;;;4963423;28;24425;-51
2022/03/19 09:18:51;;;;;;;19.97;16.30;;;;;;;;;;4949665;28;24410;-52
2022/03/19 09:21:17;;;;;;;18.70;15.95;;;;;;;;;;4950138;28;24553;-50
2022/03/19 09:23:43;;;;;;;19.33;15.68;;;;;;;;;;4951376;28;24426;-52
2022/03/19 09:26:08;;;;;;;21.08;15.48;;;;;;;;;;4949864;28;24406;-52
2022/03/19 09:28:33;;;;;;;16.70;13.60;;;;;;;;;;4950081;28;24405;-51
2022/03/19 09:30:59;;;;;;;15.85;13.40;;;;;;;;;;4949622;28;24410;-51
2022/03/19 09:33:24;;;;;;;14.87;12.50;;;;;;;;;;4959938;28;24563;-51
2022/03/19 09:35:49;;;;;;;15.87;12.80;;;;;;;;;;4968988;28;24749;-51
2022/03/19 09:38:15;;;;;;;17.20;13.03;;;;;;;;;;4968972;28;24404;-51
2022/03/19 09:40:41;;;;;;;14.33;11.37;;;;;;;;;;4969199;28;24404;-52
2022/03/19 09:43:07;;;;;;;13.87;11.50;;;;;;;;;;4967294;28;24426;-52
2022/03/19 09:45:33;;;;;;;17.33;10.90;;;;;;;;;;4968682;28;24457;-52
2022/03/19 09:47:59;;;;;;;11.32;9.50;;;;;;;;;;4966417;28;24872;-52
2022/03/19 09:50:25;;;;;;;10.67;9.57;;;;;;;;;;4967865;28;24480;-52
2022/03/19 09:52:52;;;;;;;9.45;8.45;;;;;;;;;;4969004;28;24390;-51
2022/03/19 09:55:17;;;;;;;10.23;7.90;;;;;;;;;;4966866;28;24480;-50
2022/03/19 09:57:43;;;;;;;7.47;5.73;;;;;;;;;;4968417;28;24808;-51
2022/03/19 10:00:09;;;;;;;7.80;6.70;;;;;;;;;;4968552;28;24432;-51
2022/03/19 10:02:48;;;;;;;8.95;6.70;;;;;;;;;;4968539;28;24776;-51
2022/03/19 10:10:41;;;;;;;7.70;6.70;;;;;;;;;;4968190;28;24432;-51
2022/03/19 10:13:09;;;;;;;8.32;6.97;;;;;;;;;;4968482;28;24924;-50
2022/03/19 10:15:39;;;;;;;8.40;7.30;;;;;;;;;;4966935;28;24516;-51
2022/03/19 10:18:07;;;;;;;9.85;8.45;;;;;;;;;;4967783;28;24397;-51
2022/03/19 10:20:34;;;;;;;11.35;9.30;;;;;;;;;;4968547;28;24413;-50
2022/03/19 10:22:59;;;;;;;10.70;9.55;;;;;;;;;;4960159;28;24410;-50
2022/03/19 10:25:24;;;;;;;14.95;11.85;;;;;;;;;;4949171;28;24778;-50
2022/03/19 10:27:49;;;;;;;16.88;12.70;;;;;;;;;;4948865;28;24457;-52
2022/03/19 10:30:18;;;;;;;17.10;13.37;;;;;;;;;;4948972;28;24433;-49
2022/03/19 10:32:46;;;;;;;16.25;13.35;;;;;;;;;;4950524;28;24501;-51
2022/03/19 10:35:31;;;;;;;17.80;14.13;;;;;;;;;;4968105;28;24386;-51
2022/03/19 10:37:57;;;;;;;19.15;15.23;;;;;;;;;;4968120;28;24385;-51
2022/03/19 10:40:35;;;;;;;17.50;14.50;;;;;;;;;;4967724;28;24405;-52
2022/03/19 10:43:00;;;;;;;17.10;14.80;;;;;;;;;;4967384;28;24975;-51
2022/03/19 10:45:25;;;;;;;17.43;15.33;;;;;;;;;;4966747;28;24508;-51
2022/03/19 10:47:51;;;;;;;16.53;14.80;;;;;;;;;;4967845;28;24529;-51
2022/03/19 10:50:20;;;;;;;18.73;16.50;;;;;;;;;;4968049;28;24460;-50
2022/03/19 10:52:46;;;;;;;19.83;16.23;;;;;;;;;;4968112;28;24509;-51
2022/03/19 10:55:12;;;;;;;21.75;16.75;;;;;;;;;;4966258;28;24769;-50
2022/03/19 10:57:37;;;;;;;19.20;16.20;;;;;;;;;;4968443;28;24413;-51
2022/03/19 11:00:03;;;;;;;19.37;17.27;;;;;;;;;;4967538;28;24401;-51
2022/03/19 11:02:30;;;;;;;18.40;16.23;;;;;;;;;;4967845;28;24418;-51
2022/03/19 11:04:57;;;;;;;21.30;16.48;;;;;;;;;;4966277;28;24457;-51
2022/03/19 11:07:23;;;;;;;20.13;16.80;;;;;;;;;;4967811;28;24424;-51
2022/03/19 11:09:53;;;;;;;20.90;17.17;;;;;;;;;;4967820;28;24409;-51
2022/03/19 11:12:20;;;;;;;18.70;16.65;;;;;;;;;;4960130;28;24437;-51
2022/03/19 11:14:45;;;;;;;19.63;17.40;;;;;;;;;;4948638;28;24393;-51
2022/03/19 11:17:24;;;;;;;20.08;16.95;;;;;;;;;;4951993;28;24436;-52
2022/03/19 11:19:50;;;;;;;17.75;15.43;;;;;;;;;;4952004;29;24497;-51
2022/03/19 11:22:15;;;;;;;17.97;16.07;;;;;;;;;;4952287;28;24513;-51
2022/03/19 11:24:46;;;;;;;17.67;15.70;;;;;;;;;;4952284;28;24441;-51
2022/03/19 11:27:12;;;;;;;18.38;15.57;;;;;;;;;;4951974;28;24394;-51
2022/03/19 11:29:37;;;;;;;19.13;16.53;;;;;;;;;;4956523;28;24453;-51
2022/03/19 11:32:05;;;;;;;19.70;16.40;;;;;;;;;;4971055;28;24493;-51
2022/03/19 11:34:44;;;;;;;17.63;15.82;;;;;;;;;;4969695;28;24877;-51
2022/03/19 11:37:09;;;;;;;18.37;15.90;;;;;;;;;;4970518;28;24426;-51
2022/03/19 11:39:34;;;;;;;19.55;16.40;;;;;;;;;;4971218;28;24420;-51
2022/03/19 11:41:59;;;;;;;20.40;16.70;;;;;;;;;;4971357;28;24436;-50
2022/03/19 11:44:25;;;;;;;19.33;17.30;;;;;;;;;;4971022;28;24505;-50
2022/03/19 11:46:57;;;;;;;19.75;17.50;;;;;;;;;;4968863;28;24796;-50
2022/03/19 11:49:40;;;;;;;21.00;18.60;;;;;;;;;;4966191;28;24422;-50
2022/03/19 11:52:06;;;;;;;20.73;18.42;;;;;;;;;;4951620;28;24980;-50
2022/03/19 11:54:51;;;;;;;23.53;18.20;;;;;;;;;;4951871;28;24474;-50
2022/03/19 11:57:16;;;;;;;22.80;19.20;;;;;;;;;;4951729;28;24477;-51
2022/03/19 11:59:45;;;;;;;20.17;17.93;;;;;;;;;;4962971;28;24426;-50
2022/03/19 12:02:10;;;;;;;21.00;18.80;;;;;;;;;;4956167;28;24472;-50
2022/03/19 12:04:51;;;;;;;21.55;18.77;;;;;;;;;;4967403;28;24472;-50
2022/03/19 12:07:35;;;;;;;22.65;19.00;;;;;;;;;;4955192;28;24414;-52
2022/03/19 12:10:07;;;;;;;21.70;19.05;;;;;;;;;;4958903;28;24843;-50
2022/03/19 12:12:32;;;;;;;22.77;20.20;;;;;;;;;;4953729;28;24410;-51
2022/03/19 12:14:57;;;;;;;22.25;19.45;;;;;;;;;;4965712;28;24569;-51
2022/03/19 12:17:29;;;;;;;23.60;21.10;;;;;;;;;;4965478;28;24414;-51
2022/03/19 12:20:04;;;;;;;22.53;20.03;;;;;;;;;;4956719;28;24536;-50
2022/03/19 12:22:37;;;;;;;23.35;20.85;;;;;;;;;;4951109;28;24778;-51
2022/03/19 12:25:13;;;;;;;22.33;20.02;;;;;;;;;;4960777;28;24413;-51
2022/03/19 12:27:39;;;;;;;23.23;20.73;;;;;;;;;;4951781;28;24826;-51
2022/03/19 12:30:05;;;;;;;22.93;20.43;;;;;;;;;;4950954;28;24949;-51
2022/03/19 12:32:43;;;;;;;23.13;18.88;;;;;;;;;;4963983;28;24765;-50
2022/03/19 12:35:08;;;;;;;20.83;18.63;;;;;;;;;;4970380;28;24392;-51
2022/03/19 12:37:45;;;;;;;22.03;19.67;;;;;;;;;;4959192;28;25002;-51
2022/03/19 12:40:16;;;;;;;20.80;18.60;;;;;;;;;;4951342;28;24452;-51
2022/03/19 12:42:42;;;;;;;22.87;20.47;;;;;;;;;;4951487;28;24547;-50
2022/03/19 12:45:07;;;;;;;22.75;20.33;;;;;;;;;;4965672;28;24504;-51
2022/03/19 12:47:32;;;;;;;24.93;20.83;;;;;;;;;;4955430;28;24517;-51
2022/03/19 12:49:57;;;;;;;23.90;21.40;;;;;;;;;;4961706;28;24499;-51
2022/03/19 12:52:23;;;;;;;21.63;19.43;;;;;;;;;;4965167;28;24418;-50
2022/03/19 12:54:51;;;;;;;21.50;19.20;;;;;;;;;;4959103;28;24413;-51
2022/03/19 12:57:23;;;;;;;20.65;18.33;;;;;;;;;;4967009;28;24528;-51
2022/03/19 12:59:51;;;;;;;19.33;17.35;;;;;;;;;;4962857;28;25003;-51
2022/03/19 13:02:16;;;;;;;20.45;18.10;;;;;;;;;;4968301;28;24418;-51
2022/03/19 13:04:43;;;;;;;21.47;18.40;;;;;;;;;;4969956;28;24490;-51
2022/03/19 13:07:08;;;;;;;21.07;18.53;;;;;;;;;;4954998;28;24469;-51
2022/03/19 13:09:34;;;;;;;21.77;19.47;;;;;;;;;;4950591;28;24916;-51
2022/03/19 13:12:00;;;;;;;21.58;18.20;;;;;;;;;;4950351;28;24785;-51
2022/03/19 13:14:25;;;;;;;22.33;19.58;;;;;;;;;;4950990;28;24410;-50
2022/03/19 13:16:54;;;;;;;22.07;19.23;;;;;;;;;;4951056;28;24818;-50
2022/03/19 13:19:19;;;;;;;22.13;19.45;;;;;;;;;;4954400;28;24466;-51
2022/03/19 13:21:48;;;;;;;21.67;19.37;;;;;;;;;;4969419;28;24480;-51
2022/03/19 13:24:13;;;;;;;22.27;18.80;;;;;;;;;;4968586;28;24409;-50
2022/03/19 13:26:40;;;;;;;23.17;19.40;;;;;;;;;;4965349;28;24657;-51
2022/03/19 13:29:06;;;;;;;23.17;19.88;;;;;;;;;;4954490;28;24509;-50
2022/03/19 13:31:35;;;;;;;24.73;20.87;;;;;;;;;;4965841;28;24859;-50
2022/03/19 13:34:04;;;;;;;23.30;20.80;;;;;;;;;;4960891;28;24447;-50
2022/03/19 13:36:31;;;;;;;22.90;20.00;;;;;;;;;;4966182;28;25351;-51
2022/03/19 13:38:56;;;;;;;25.35;21.33;;;;;;;;;;4968659;28;24567;-51
2022/03/19 13:41:23;;;;;;;23.43;20.93;;;;;;;;;;4968867;28;24409;-51
2022/03/19 13:43:48;;;;;;;22.20;19.88;;;;;;;;;;4968661;28;24936;-51
2022/03/19 13:46:14;;;;;;;23.47;20.10;;;;;;;;;;4969117;28;24429;-51
2022/03/19 13:48:40;;;;;;;23.35;20.83;;;;;;;;;;4955430;28;24980;-51
2022/03/19 13:51:05;;;;;;;23.20;20.20;;;;;;;;;;4954054;28;24563;-51
2022/03/19 13:53:41;;;;;;;23.17;20.67;;;;;;;;;;4959304;28;24421;-51
2022/03/19 13:56:06;;;;;;;23.10;19.20;;;;;;;;;;4968304;28;24488;-51
2022/03/19 13:58:31;;;;;;;22.10;18.73;;;;;;;;;;4968830;28;24501;-51
2022/03/19 14:00:57;;;;;;;20.70;18.50;;;;;;;;;;4968594;28;24400;-50
2022/03/19 14:03:23;;;;;;;19.63;17.53;;;;;;;;;;4966506;28;24456;-51
2022/03/19 14:05:51;;;;;;;19.50;17.50;;;;;;;;;;4967903;28;24394;-51
2022/03/19 14:08:17;;;;;;;19.13;17.23;;;;;;;;;;4952727;28;24493;-51
2022/03/19 14:10:43;;;;;;;21.30;17.13;;;;;;;;;;4962382;28;25063;-51
2022/03/19 14:13:10;;;;;;;19.88;16.52;;;;;;;;;;4967810;28;24433;-51
2022/03/19 14:15:55;;;;;;;21.85;17.42;;;;;;;;;;4963167;28;24978;-51
2022/03/19 14:18:20;;;;;;;19.63;16.80;;;;;;;;;;4963281;28;25466;-51
2022/03/19 14:20:45;;;;;;;19.10;17.10;;;;;;;;;;4968668;28;25188;-50
2022/03/19 14:23:10;;;;;;;19.50;16.05;;;;;;;;;;4966386;28;24433;-51
2022/03/19 14:25:36;;;;;;;19.57;16.50;;;;;;;;;;4966799;28;24445;-50
2022/03/19 14:28:06;;;;;;;18.30;16.40;;;;;;;;;;4967850;28;24500;-51
2022/03/19 14:30:31;;;;;;;19.88;15.82;;;;;;;;;;4967297;28;25119;-51
2022/03/19 14:32:59;;;;;;;19.50;16.38;;;;;;;;;;4965745;28;24948;-51
2022/03/19 14:35:37;;;;;;;19.83;16.20;;;;;;;;;;4955083;28;24421;-52